Time;durP1;ratioP1;P1;durP2;ratioP2;P2;SDS_P1;SDS_P2;PMS_P1;PMS_P2;Temp;Humidity;BMP_temperature;BMP_pressure;BME280_temperature;BME280_humidity;BME280_pressure;Samples;Min_cycle;Max_cycle;Signal;HPM_P1;HPM_P2
2021/12/30 00:00:08;;;;;;;3.03;0.20;;;;;;;;;;7390739;19;20013;-76
2021/12/30 00:02:33;;;;;;;0.90;0.35;;;;;;;;;;7393033;19;19995;-75
2021/12/30 00:04:58;;;;;;;0.47;0.20;;;;;;;;;;7392778;19;20118;-76
2021/12/30 00:07:24;;;;;;;0.80;0.40;;;;;;;;;;7391308;19;20331;-76
2021/12/30 00:09:50;;;;;;;0.38;0.38;;;;;;;;;;7391547;19;20037;-76
2021/12/30 00:12:15;;;;;;;0.30;0.30;;;;;;;;;;7392590;19;19999;-76
2021/12/30 00:14:40;;;;;;;0.32;0.20;;;;;;;;;;7392435;19;20005;-76
2021/12/30 00:17:06;;;;;;;0.17;0.17;;;;;;;;;;7390334;19;20054;-76
2021/12/30 00:19:31;;;;;;;0.35;0.30;;;;;;;;;;7390651;19;20020;-76
2021/12/30 00:21:56;;;;;;;0.55;0.30;;;;;;;;;;7394967;19;19994;-76
2021/12/30 00:24:22;;;;;;;0.50;0.40;;;;;;;;;;7391420;19;20002;-76
2021/12/30 00:26:47;;;;;;;0.20;0.20;;;;;;;;;;7390708;19;20082;-76
2021/12/30 00:29:12;;;;;;;0.32;0.30;;;;;;;;;;7395148;19;20032;-76
2021/12/30 00:31:38;;;;;;;0.20;0.20;;;;;;;;;;7395960;19;20022;-76
2021/12/30 00:34:03;;;;;;;0.50;0.28;;;;;;;;;;7394923;19;20002;-76
2021/12/30 00:36:28;;;;;;;0.30;0.30;;;;;;;;;;7391169;19;19995;-76
2021/12/30 00:38:53;;;;;;;0.63;0.43;;;;;;;;;;7390136;19;19998;-75
2021/12/30 00:41:19;;;;;;;0.45;0.30;;;;;;;;;;7392154;19;19994;-76
2021/12/30 00:43:45;;;;;;;0.20;0.20;;;;;;;;;;7391453;19;20430;-75
2021/12/30 00:46:11;;;;;;;0.15;0.15;;;;;;;;;;7394306;19;19997;-76
2021/12/30 00:48:37;;;;;;;0.50;0.30;;;;;;;;;;7390641;19;19987;-75
2021/12/30 00:51:03;;;;;;;0.43;0.25;;;;;;;;;;7391264;19;19995;-76
2021/12/30 00:53:29;;;;;;;0.20;0.20;;;;;;;;;;7390696;19;20015;-75
2021/12/30 00:55:54;;;;;;;0.30;0.30;;;;;;;;;;7390924;19;19998;-75
2021/12/30 00:58:19;;;;;;;0.30;0.30;;;;;;;;;;7390324;19;19999;-76
2021/12/30 01:00:46;;;;;;;0.68;0.43;;;;;;;;;;7389165;19;20509;-75
2021/12/30 01:03:13;;;;;;;0.32;0.25;;;;;;;;;;7389680;19;19991;-75
2021/12/30 01:05:38;;;;;;;1.05;0.50;;;;;;;;;;7390668;19;20002;-76
2021/12/30 01:08:05;;;;;;;0.45;0.40;;;;;;;;;;7389800;19;20023;-76
2021/12/30 01:10:31;;;;;;;0.45;0.40;;;;;;;;;;7394129;19;19998;-76
2021/12/30 01:12:59;;;;;;;1.95;1.30;;;;;;;;;;7393325;19;20361;-76
2021/12/30 01:15:34;;;;;;;0.73;0.60;;;;;;;;;;7390743;19;20002;-76
2021/12/30 01:18:23;;;;;;;0.35;0.32;;;;;;;;;;7390207;19;20007;-76
2021/12/30 01:20:47;;;;;;;0.38;0.38;;;;;;;;;;7390480;19;20114;-76
2021/12/30 01:23:12;;;;;;;0.75;0.50;;;;;;;;;;7393551;19;19998;-76
2021/12/30 01:25:38;;;;;;;1.73;0.90;;;;;;;;;;7390041;19;19998;-76
2021/12/30 01:28:03;;;;;;;0.52;0.43;;;;;;;;;;7388330;19;20002;-76
2021/12/30 01:30:28;;;;;;;2.58;1.10;;;;;;;;;;7389502;19;20025;-75
2021/12/30 01:32:54;;;;;;;1.08;0.40;;;;;;;;;;7388168;19;20080;-75
2021/12/30 01:35:23;;;;;;;0.50;0.40;;;;;;;;;;7389915;19;20012;-75
2021/12/30 01:37:50;;;;;;;0.22;0.22;;;;;;;;;;7388074;19;19999;-75
2021/12/30 01:40:17;;;;;;;0.30;0.30;;;;;;;;;;7387081;19;20003;-75
2021/12/30 01:42:42;;;;;;;0.95;0.40;;;;;;;;;;7389714;19;20328;-75
2021/12/30 01:45:09;;;;;;;1.38;0.50;;;;;;;;;;7389602;19;20020;-75
2021/12/30 01:47:34;;;;;;;0.30;0.30;;;;;;;;;;7388438;19;20069;-75
2021/12/30 01:49:59;;;;;;;0.40;0.40;;;;;;;;;;7389333;19;20600;-75
2021/12/30 01:52:25;;;;;;;0.32;0.32;;;;;;;;;;7389218;19;19995;-75
2021/12/30 01:54:50;;;;;;;0.15;0.15;;;;;;;;;;7392770;19;20026;-75
2021/12/30 01:57:16;;;;;;;0.35;0.35;;;;;;;;;;7387847;19;20001;-75
2021/12/30 01:59:41;;;;;;;0.30;0.30;;;;;;;;;;7387888;19;20450;-75
2021/12/30 02:02:07;;;;;;;0.47;0.47;;;;;;;;;;7392280;19;19987;-75
2021/12/30 02:04:33;;;;;;;0.20;0.20;;;;;;;;;;7388939;19;19999;-75
2021/12/30 02:06:59;;;;;;;0.40;0.40;;;;;;;;;;7387754;19;20353;-75
2021/12/30 02:09:25;;;;;;;0.38;0.38;;;;;;;;;;7387582;19;19995;-76
2021/12/30 02:11:53;;;;;;;0.22;0.20;;;;;;;;;;7389383;19;20016;-75
2021/12/30 02:14:18;;;;;;;0.30;0.30;;;;;;;;;;7388950;19;20502;-75
2021/12/30 02:16:44;;;;;;;0.38;0.10;;;;;;;;;;7387894;19;19995;-76
2021/12/30 02:19:09;;;;;;;0.25;0.25;;;;;;;;;;7387525;19;19998;-75
2021/12/30 02:21:35;;;;;;;0.20;0.20;;;;;;;;;;7389737;19;20001;-76
2021/12/30 02:24:00;;;;;;;0.10;0.10;;;;;;;;;;7387820;19;19994;-76
2021/12/30 02:26:26;;;;;;;0.10;0.10;;;;;;;;;;7387733;19;20006;-76
2021/12/30 02:28:52;;;;;;;0.10;0.10;;;;;;;;;;7387857;19;19999;-76
2021/12/30 02:31:27;;;;;;;0.00;0.00;;;;;;;;;;7388521;19;20003;-76
2021/12/30 02:33:55;;;;;;;0.28;0.20;;;;;;;;;;7386402;19;20489;-76
2021/12/30 02:36:47;;;;;;;0.10;0.10;;;;;;;;;;7387367;19;20062;-76
2021/12/30 02:39:13;;;;;;;0.00;0.00;;;;;;;;;;7386657;19;19994;-76
2021/12/30 02:41:38;;;;;;;0.00;0.00;;;;;;;;;;7395666;19;20014;-76
2021/12/30 02:44:06;;;;;;;0.30;0.10;;;;;;;;;;7395285;19;20054;-76
2021/12/30 02:46:33;;;;;;;0.10;0.10;;;;;;;;;;7394432;19;20003;-76
2021/12/30 02:48:59;;;;;;;0.08;0.08;;;;;;;;;;7395748;19;20075;-76
2021/12/30 02:51:25;;;;;;;0.20;0.10;;;;;;;;;;7399042;19;20521;-76
2021/12/30 02:53:51;;;;;;;0.20;0.05;;;;;;;;;;7394722;19;19999;-76
2021/12/30 02:56:17;;;;;;;0.10;0.10;;;;;;;;;;7393984;19;20001;-76
2021/12/30 02:58:43;;;;;;;0.10;0.03;;;;;;;;;;7394067;19;20050;-76
2021/12/30 03:01:18;;;;;;;1.75;0.17;;;;;;;;;;7394734;19;20015;-76
2021/12/30 03:03:43;;;;;;;;;;;;;;;;;;7395631;19;20050;-75
2021/12/30 03:06:11;;;;;;;0.10;0.10;;;;;;;;;;7394292;19;19911;-76
2021/12/30 03:08:37;;;;;;;0.10;0.10;;;;;;;;;;7394628;19;20259;-76
2021/12/30 03:11:03;;;;;;;0.85;0.00;;;;;;;;;;7395541;19;19994;-76
2021/12/30 03:13:33;;;;;;;0.32;0.13;;;;;;;;;;7395928;19;20005;-76
2021/12/30 03:16:04;;;;;;;0.20;0.20;;;;;;;;;;7394455;19;20316;-75
2021/12/30 03:18:34;;;;;;;0.10;0.10;;;;;;;;;;7394516;19;20002;-75
2021/12/30 03:21:02;;;;;;;0.20;0.15;;;;;;;;;;7396820;19;19994;-75
2021/12/30 03:23:28;;;;;;;0.45;0.20;;;;;;;;;;7393855;19;20315;-76
2021/12/30 03:25:53;;;;;;;1.55;0.10;;;;;;;;;;7394002;19;20435;-75
2021/12/30 03:28:19;;;;;;;0.80;0.50;;;;;;;;;;7393473;19;20576;-75
2021/12/30 03:30:45;;;;;;;0.85;0.15;;;;;;;;;;7394010;19;19999;-75
2021/12/30 03:33:10;;;;;;;0.00;0.00;;;;;;;;;;7393736;19;20018;-76
2021/12/30 03:35:36;;;;;;;0.22;0.17;;;;;;;;;;7393627;19;19991;-75
2021/12/30 03:38:02;;;;;;;0.25;0.20;;;;;;;;;;7393129;19;20014;-75
2021/12/30 03:40:28;;;;;;;0.32;0.10;;;;;;;;;;7395322;19;20002;-76
2021/12/30 03:42:53;;;;;;;0.10;0.10;;;;;;;;;;7393839;19;20023;-75
2021/12/30 03:45:20;;;;;;;0.10;0.10;;;;;;;;;;7393575;19;20015;-75
2021/12/30 03:47:48;;;;;;;0.20;0.20;;;;;;;;;;7391726;19;20006;-75
2021/12/30 03:50:20;;;;;;;3.08;0.30;;;;;;;;;;7391598;19;19990;-75
2021/12/30 03:52:49;;;;;;;0.20;0.20;;;;;;;;;;7396462;19;19998;-75
2021/12/30 03:55:16;;;;;;;1.80;0.20;;;;;;;;;;7392557;19;20002;-75
2021/12/30 03:57:42;;;;;;;0.10;0.10;;;;;;;;;;7391243;19;20020;-76
2021/12/30 04:00:08;;;;;;;0.75;0.20;;;;;;;;;;7391022;19;20351;-75
2021/12/30 04:02:33;;;;;;;0.13;0.10;;;;;;;;;;7393025;19;19998;-76
2021/12/30 04:04:59;;;;;;;1.98;0.15;;;;;;;;;;7392321;19;20110;-75
2021/12/30 04:07:24;;;;;;;0.10;0.10;;;;;;;;;;7390821;19;19999;-76
2021/12/30 04:09:49;;;;;;;1.17;0.20;;;;;;;;;;7391608;19;20490;-75
2021/12/30 04:12:15;;;;;;;0.13;0.10;;;;;;;;;;7390683;19;20001;-75
2021/12/30 04:14:40;;;;;;;0.28;0.05;;;;;;;;;;7392320;19;19997;-75
2021/12/30 04:17:05;;;;;;;0.30;0.20;;;;;;;;;;7390926;19;19998;-75
2021/12/30 04:19:30;;;;;;;0.10;0.10;;;;;;;;;;7390631;19;20002;-75
2021/12/30 04:21:58;;;;;;;0.10;0.10;;;;;;;;;;7394533;19;19998;-75
2021/12/30 04:24:23;;;;;;;1.55;0.30;;;;;;;;;;7391299;19;20368;-75
2021/12/30 04:26:50;;;;;;;0.70;0.30;;;;;;;;;;7391346;19;20005;-76
2021/12/30 04:29:19;;;;;;;0.10;0.10;;;;;;;;;;7393768;19;19999;-76
2021/12/30 04:31:44;;;;;;;0.10;0.10;;;;;;;;;;7396381;19;20002;-75
2021/12/30 04:34:10;;;;;;;0.50;0.30;;;;;;;;;;7391733;19;20005;-76
2021/12/30 04:36:35;;;;;;;0.13;0.10;;;;;;;;;;7391442;19;20480;-76
2021/12/30 04:39:01;;;;;;;1.58;0.20;;;;;;;;;;7389821;19;19995;-76
2021/12/30 04:41:26;;;;;;;0.20;0.05;;;;;;;;;;7392404;19;20013;-75
2021/12/30 04:43:51;;;;;;;0.10;0.10;;;;;;;;;;7391691;19;19991;-76
2021/12/30 04:46:17;;;;;;;1.42;0.10;;;;;;;;;;7390767;19;20062;-76
2021/12/30 04:48:42;;;;;;;0.93;0.05;;;;;;;;;;7390498;19;20116;-76
2021/12/30 04:51:08;;;;;;;0.20;0.20;;;;;;;;;;7391425;19;19991;-76
2021/12/30 04:53:33;;;;;;;0.20;0.20;;;;;;;;;;7390353;19;20535;-76
2021/12/30 04:55:58;;;;;;;0.30;0.30;;;;;;;;;;7391408;19;19998;-76
2021/12/30 04:58:24;;;;;;;0.10;0.10;;;;;;;;;;7390144;19;19997;-76
2021/12/30 05:00:49;;;;;;;0.20;0.20;;;;;;;;;;7391077;19;19990;-76
2021/12/30 05:03:15;;;;;;;0.10;0.10;;;;;;;;;;7388541;19;20010;-76
2021/12/30 05:05:52;;;;;;;0.00;0.00;;;;;;;;;;7390900;19;20014;-76
2021/12/30 05:08:20;;;;;;;1.80;0.28;;;;;;;;;;7389366;19;20100;-76
2021/12/30 05:10:46;;;;;;;0.40;0.30;;;;;;;;;;7390783;19;19995;-76
2021/12/30 05:13:11;;;;;;;0.20;0.03;;;;;;;;;;7390495;19;20002;-76
2021/12/30 05:15:39;;;;;;;0.10;0.10;;;;;;;;;;7390497;19;20472;-76
2021/12/30 05:18:06;;;;;;;0.20;0.10;;;;;;;;;;7389592;19;20009;-77
2021/12/30 05:20:31;;;;;;;0.17;0.10;;;;;;;;;;7390509;19;20031;-77
2021/12/30 05:22:58;;;;;;;0.10;0.10;;;;;;;;;;7394666;19;20340;-76
2021/12/30 05:25:24;;;;;;;0.20;0.20;;;;;;;;;;7389750;19;20002;-76
2021/12/30 05:27:50;;;;;;;0.20;0.20;;;;;;;;;;7388426;19;19998;-76
2021/12/30 05:30:16;;;;;;;0.10;0.10;;;;;;;;;;7389478;19;20003;-76
2021/12/30 05:32:43;;;;;;;0.55;0.25;;;;;;;;;;7390502;19;20757;-76
2021/12/30 05:35:10;;;;;;;0.15;0.08;;;;;;;;;;7390226;19;20477;-76
2021/12/30 05:37:36;;;;;;;0.13;0.10;;;;;;;;;;7387144;19;20094;-76
2021/12/30 05:40:02;;;;;;;1.55;0.30;;;;;;;;;;7387156;19;20003;-76
2021/12/30 05:42:28;;;;;;;1.25;0.68;;;;;;;;;;7387853;19;20422;-76
2021/12/30 05:44:54;;;;;;;1.05;0.50;;;;;;;;;;7390300;19;20003;-76
2021/12/30 05:47:20;;;;;;;0.52;0.52;;;;;;;;;;7387954;19;20346;-76
2021/12/30 05:49:45;;;;;;;0.20;0.10;;;;;;;;;;7389158;19;20026;-76
2021/12/30 05:52:12;;;;;;;0.25;0.20;;;;;;;;;;7389441;19;20473;-76
2021/12/30 05:54:38;;;;;;;0.10;0.10;;;;;;;;;;7389375;19;19995;-77
2021/12/30 05:57:03;;;;;;;0.10;0.10;;;;;;;;;;7388758;19;20002;-77
2021/12/30 05:59:28;;;;;;;0.10;0.10;;;;;;;;;;7388163;19;20050;-76
2021/12/30 06:01:54;;;;;;;0.00;0.00;;;;;;;;;;7389111;19;19998;-76
2021/12/30 06:04:19;;;;;;;0.10;0.10;;;;;;;;;;7388886;19;20002;-76
2021/12/30 06:06:44;;;;;;;0.28;0.10;;;;;;;;;;7387889;19;20003;-76
2021/12/30 06:09:10;;;;;;;0.35;0.25;;;;;;;;;;7390655;19;20491;-76
2021/12/30 06:11:36;;;;;;;0.30;0.30;;;;;;;;;;7393161;19;20002;-76
2021/12/30 06:14:01;;;;;;;0.45;0.45;;;;;;;;;;7388873;19;20005;-77
2021/12/30 06:16:26;;;;;;;0.30;0.30;;;;;;;;;;7395271;19;20013;-76
2021/12/30 06:18:52;;;;;;;0.55;0.52;;;;;;;;;;7395639;19;20023;-77
2021/12/30 06:21:17;;;;;;;1.08;0.60;;;;;;;;;;7396640;19;20066;-76
2021/12/30 06:23:42;;;;;;;0.30;0.30;;;;;;;;;;7396173;19;20041;-76
2021/12/30 06:26:08;;;;;;;2.33;0.20;;;;;;;;;;7395203;19;20002;-76
2021/12/30 06:28:33;;;;;;;0.10;0.10;;;;;;;;;;7395229;19;20033;-76
2021/12/30 06:30:58;;;;;;;0.30;0.17;;;;;;;;;;7396098;19;19999;-76
2021/12/30 06:33:23;;;;;;;0.10;0.05;;;;;;;;;;7395502;19;20088;-76
2021/12/30 06:35:49;;;;;;;0.10;0.08;;;;;;;;;;7395308;19;19999;-76
2021/12/30 06:38:14;;;;;;;0.85;0.10;;;;;;;;;;7394414;19;20014;-76
2021/12/30 06:40:39;;;;;;;0.00;0.00;;;;;;;;;;7393150;19;19994;-76
2021/12/30 06:43:05;;;;;;;0.30;0.30;;;;;;;;;;7395529;19;20005;-76
2021/12/30 06:45:30;;;;;;;1.55;0.63;;;;;;;;;;7395307;19;20002;-76
2021/12/30 06:47:55;;;;;;;0.30;0.17;;;;;;;;;;7392989;19;20022;-76
2021/12/30 06:50:24;;;;;;;0.40;0.20;;;;;;;;;;7394532;19;19991;-76
2021/12/30 06:52:50;;;;;;;0.80;0.45;;;;;;;;;;7395250;19;20127;-76
2021/12/30 06:55:15;;;;;;;1.20;0.98;;;;;;;;;;7394627;19;20003;-76
2021/12/30 06:57:41;;;;;;;1.60;0.93;;;;;;;;;;7392760;19;20002;-76
2021/12/30 07:00:08;;;;;;;0.40;0.40;;;;;;;;;;7397322;19;20130;-77
2021/12/30 07:02:35;;;;;;;0.38;0.38;;;;;;;;;;7398762;19;20002;-77
2021/12/30 07:05:01;;;;;;;0.70;0.50;;;;;;;;;;7394588;19;20073;-77
2021/12/30 07:07:26;;;;;;;1.52;0.50;;;;;;;;;;7393068;19;19999;-76
2021/12/30 07:09:51;;;;;;;1.05;0.40;;;;;;;;;;7393508;19;20005;-76
2021/12/30 07:12:17;;;;;;;1.00;0.90;;;;;;;;;;7394579;19;20006;-76
2021/12/30 07:14:43;;;;;;;0.40;0.40;;;;;;;;;;7394625;19;20022;-76
2021/12/30 07:17:08;;;;;;;2.22;0.30;;;;;;;;;;7392656;19;20395;-76
2021/12/30 07:19:33;;;;;;;0.20;0.20;;;;;;;;;;7392044;19;20002;-76
2021/12/30 07:21:58;;;;;;;2.65;0.57;;;;;;;;;;7394914;19;20003;-76
2021/12/30 07:24:24;;;;;;;0.68;0.40;;;;;;;;;;7393723;19;20379;-77
2021/12/30 07:26:50;;;;;;;1.20;0.50;;;;;;;;;;7390592;19;20020;-77
2021/12/30 07:29:16;;;;;;;1.48;0.77;;;;;;;;;;7393281;19;20461;-77
2021/12/30 07:31:41;;;;;;;0.98;0.50;;;;;;;;;;7393871;19;20074;-76
2021/12/30 07:34:07;;;;;;;1.67;0.70;;;;;;;;;;7393574;19;19999;-76
2021/12/30 07:36:32;;;;;;;0.85;0.55;;;;;;;;;;7392868;19;19999;-76
2021/12/30 07:38:57;;;;;;;0.65;0.40;;;;;;;;;;7391771;19;19995;-76
2021/12/30 07:41:23;;;;;;;3.50;1.08;;;;;;;;;;7393767;19;19998;-76
2021/12/30 07:43:48;;;;;;;4.03;3.63;;;;;;;;;;7393298;19;19991;-76
2021/12/30 07:46:13;;;;;;;1.65;1.55;;;;;;;;;;7393078;19;20382;-76
2021/12/30 07:48:39;;;;;;;1.88;1.40;;;;;;;;;;7394714;19;19999;-76
2021/12/30 07:51:05;;;;;;;1.33;1.20;;;;;;;;;;7396258;19;20006;-76
2021/12/30 07:53:30;;;;;;;3.58;0.77;;;;;;;;;;7390838;19;20040;-76
2021/12/30 07:55:56;;;;;;;0.70;0.70;;;;;;;;;;7392681;19;20014;-77
2021/12/30 07:58:21;;;;;;;1.10;1.00;;;;;;;;;;7392584;19;20066;-76
2021/12/30 08:00:46;;;;;;;0.57;0.57;;;;;;;;;;7394670;19;20461;-76
2021/12/30 08:03:12;;;;;;;0.52;0.52;;;;;;;;;;7392609;19;20491;-76
2021/12/30 08:05:37;;;;;;;0.75;0.60;;;;;;;;;;7392512;19;20356;-76
2021/12/30 08:08:03;;;;;;;0.32;0.32;;;;;;;;;;7392010;19;20006;-77
2021/12/30 08:10:29;;;;;;;0.50;0.50;;;;;;;;;;7392747;19;20446;-76
2021/12/30 08:12:55;;;;;;;1.65;0.50;;;;;;;;;;7392694;19;19998;-76
2021/12/30 08:15:21;;;;;;;0.40;0.40;;;;;;;;;;7392257;19;20019;-76
2021/12/30 08:17:47;;;;;;;0.50;0.50;;;;;;;;;;7390499;19;20469;-76
2021/12/30 08:20:14;;;;;;;0.40;0.40;;;;;;;;;;7390860;19;20002;-76
2021/12/30 08:22:39;;;;;;;0.47;0.30;;;;;;;;;;7396411;19;20027;-76
2021/12/30 08:25:07;;;;;;;0.63;0.63;;;;;;;;;;7391423;19;20007;-77
2021/12/30 08:27:33;;;;;;;0.38;0.38;;;;;;;;;;7390260;19;20312;-76
2021/12/30 08:29:58;;;;;;;0.52;0.40;;;;;;;;;;7391226;19;20023;-76
2021/12/30 08:32:23;;;;;;;1.25;0.40;;;;;;;;;;7392738;19;19994;-76
2021/12/30 08:34:49;;;;;;;1.38;0.60;;;;;;;;;;7391761;19;20485;-76
2021/12/30 08:37:16;;;;;;;2.38;0.32;;;;;;;;;;7389778;19;20002;-76
2021/12/30 08:39:43;;;;;;;0.93;0.75;;;;;;;;;;7393166;19;20027;-77
2021/12/30 08:42:28;;;;;;;0.43;0.40;;;;;;;;;;7395293;19;20007;-76
2021/12/30 08:44:55;;;;;;;0.55;0.40;;;;;;;;;;7390923;19;20040;-76
2021/12/30 08:47:21;;;;;;;1.30;0.40;;;;;;;;;;7389807;19;20011;-76
2021/12/30 08:49:47;;;;;;;0.60;0.40;;;;;;;;;;7390625;19;20043;-76
2021/12/30 08:52:18;;;;;;;1.27;0.90;;;;;;;;;;7391391;19;20011;-76
2021/12/30 08:54:47;;;;;;;2.30;1.00;;;;;;;;;;7390189;19;20012;-76
2021/12/30 08:57:13;;;;;;;1.52;1.02;;;;;;;;;;7390093;19;20468;-76
2021/12/30 08:59:38;;;;;;;1.20;0.80;;;;;;;;;;7389739;19;20066;-76
2021/12/30 09:02:05;;;;;;;0.82;0.70;;;;;;;;;;7391266;19;19999;-76
2021/12/30 09:04:31;;;;;;;0.75;0.65;;;;;;;;;;7390565;19;20307;-76
2021/12/30 09:06:56;;;;;;;0.65;0.45;;;;;;;;;;7388246;19;20066;-76
2021/12/30 09:09:22;;;;;;;0.40;0.38;;;;;;;;;;7389241;19;20070;-76
2021/12/30 09:11:47;;;;;;;0.30;0.30;;;;;;;;;;7391003;19;20362;-76
2021/12/30 09:14:13;;;;;;;0.30;0.30;;;;;;;;;;7389909;19;20006;-76
2021/12/30 09:16:40;;;;;;;0.45;0.35;;;;;;;;;;7389526;19;20078;-76
2021/12/30 09:19:05;;;;;;;0.45;0.40;;;;;;;;;;7388911;19;20003;-76
2021/12/30 09:21:30;;;;;;;0.75;0.43;;;;;;;;;;7391144;19;19994;-76
2021/12/30 09:23:56;;;;;;;0.32;0.32;;;;;;;;;;7389697;19;20003;-76
2021/12/30 09:26:21;;;;;;;0.25;0.25;;;;;;;;;;7390198;19;20014;-76
2021/12/30 09:28:46;;;;;;;0.20;0.20;;;;;;;;;;7390620;19;19987;-76
2021/12/30 09:31:11;;;;;;;0.45;0.45;;;;;;;;;;7393497;19;20007;-76
2021/12/30 09:33:37;;;;;;;0.40;0.40;;;;;;;;;;7389972;19;20016;-76
2021/12/30 09:36:03;;;;;;;0.20;0.20;;;;;;;;;;7388096;19;20002;-76
2021/12/30 09:38:28;;;;;;;3.40;0.47;;;;;;;;;;7388532;19;20065;-76
2021/12/30 09:40:54;;;;;;;0.73;0.60;;;;;;;;;;7388022;19;20023;-76
2021/12/30 09:43:20;;;;;;;0.57;0.57;;;;;;;;;;7389433;19;20284;-76
2021/12/30 09:45:46;;;;;;;1.00;0.57;;;;;;;;;;7389542;19;19998;-76
2021/12/30 09:48:13;;;;;;;0.35;0.35;;;;;;;;;;7389104;19;20338;-76
2021/12/30 09:50:42;;;;;;;0.98;0.60;;;;;;;;;;7401655;19;20027;-76
2021/12/30 09:53:08;;;;;;;0.50;0.50;;;;;;;;;;7402826;19;20003;-76
2021/12/30 09:55:34;;;;;;;0.77;0.40;;;;;;;;;;7403751;19;20162;-76
2021/12/30 09:58:00;;;;;;;0.60;0.40;;;;;;;;;;7401546;19;20003;-76
2021/12/30 10:00:26;;;;;;;1.42;0.40;;;;;;;;;;7401716;19;20011;-76
2021/12/30 10:02:51;;;;;;;0.90;0.60;;;;;;;;;;7404217;19;19990;-76
2021/12/30 10:05:20;;;;;;;0.90;0.40;;;;;;;;;;7403384;19;20010;-77
2021/12/30 10:07:46;;;;;;;1.02;0.63;;;;;;;;;;7401736;19;20006;-76
2021/12/30 10:10:29;;;;;;;0.17;0.17;;;;;;;;;;7400452;19;19998;-76
2021/12/30 10:12:54;;;;;;;0.45;0.20;;;;;;;;;;7403306;19;19994;-76
2021/12/30 10:15:24;;;;;;;0.32;0.30;;;;;;;;;;7402872;19;20010;-77
2021/12/30 10:17:58;;;;;;;0.77;0.40;;;;;;;;;;7402166;19;20514;-76
2021/12/30 10:20:29;;;;;;;1.27;0.52;;;;;;;;;;7404642;19;20671;-77
2021/12/30 10:22:57;;;;;;;1.05;0.22;;;;;;;;;;7407224;19;19998;-77
2021/12/30 10:25:29;;;;;;;0.52;0.40;;;;;;;;;;7402058;19;20006;-76
2021/12/30 10:27:55;;;;;;;1.02;0.80;;;;;;;;;;7400693;19;20002;-77
2021/12/30 10:30:34;;;;;;;0.70;0.50;;;;;;;;;;7401922;19;20052;-77
2021/12/30 10:33:10;;;;;;;1.40;0.57;;;;;;;;;;7402619;19;20003;-76
2021/12/30 10:35:35;;;;;;;1.58;0.80;;;;;;;;;;7402740;19;20486;-77
2021/12/30 10:38:04;;;;;;;1.10;0.70;;;;;;;;;;7399751;19;20014;-77
2021/12/30 10:40:31;;;;;;;0.35;0.35;;;;;;;;;;7400375;19;20605;-76
2021/12/30 10:43:36;;;;;;;0.30;0.30;;;;;;;;;;7402375;19;20047;-76
2021/12/30 10:46:15;;;;;;;0.20;0.20;;;;;;;;;;7401908;19;20006;-77
2021/12/30 10:49:05;;;;;;;0.20;0.20;;;;;;;;;;7401528;19;20018;-77
2021/12/30 10:51:30;;;;;;;0.52;0.30;;;;;;;;;;7401589;19;20005;-77
2021/12/30 10:53:57;;;;;;;5.80;4.33;;;;;;;;;;7401259;19;19994;-76
2021/12/30 10:56:31;;;;;;;3.95;1.88;;;;;;;;;;7400839;19;20732;-77
2021/12/30 10:59:10;;;;;;;6.93;2.88;;;;;;;;;;7400485;19;20006;-76
2021/12/30 11:01:53;;;;;;;6.80;3.40;;;;;;;;;;7397522;19;20015;-77
2021/12/30 11:04:19;;;;;;;3.28;2.35;;;;;;;;;;7394626;19;19999;-77
2021/12/30 11:06:46;;;;;;;3.55;2.58;;;;;;;;;;7393507;19;20488;-76
2021/12/30 11:09:13;;;;;;;6.03;2.00;;;;;;;;;;7396888;19;20154;-76
2021/12/30 11:11:50;;;;;;;80.82;50.92;;;;;;;;;;7398939;19;20066;-76
2021/12/30 11:14:18;;;;;;;48.70;27.60;;;;;;;;;;7394811;19;20058;-77
2021/12/30 11:16:59;;;;;;;5.72;3.90;;;;;;;;;;7393356;19;20090;-76
2021/12/30 11:19:26;;;;;;;2.08;1.50;;;;;;;;;;7392763;19;20010;-76
2021/12/30 11:21:53;;;;;;;1.52;0.70;;;;;;;;;;7396112;19;20137;-76
2021/12/30 11:24:19;;;;;;;0.52;0.52;;;;;;;;;;7393480;19;20003;-76
2021/12/30 11:26:44;;;;;;;0.30;0.30;;;;;;;;;;7393207;19;19995;-76
2021/12/30 11:29:09;;;;;;;1.17;0.40;;;;;;;;;;7393171;19;20019;-76
2021/12/30 11:31:35;;;;;;;0.55;0.28;;;;;;;;;;7393834;19;20002;-78
2021/12/30 11:34:02;;;;;;;0.30;0.20;;;;;;;;;;7393773;19;19998;-76
2021/12/30 11:36:29;;;;;;;0.35;0.32;;;;;;;;;;7392997;19;20014;-77
2021/12/30 11:39:01;;;;;;;1.13;0.95;;;;;;;;;;7392125;19;20385;-77
2021/12/30 11:41:28;;;;;;;1.55;0.52;;;;;;;;;;7394332;19;20001;-77
2021/12/30 11:43:54;;;;;;;0.28;0.28;;;;;;;;;;7393452;19;19998;-77
2021/12/30 11:46:43;;;;;;;0.28;0.20;;;;;;;;;;7392987;19;20026;-77
2021/12/30 11:49:11;;;;;;;0.30;0.30;;;;;;;;;;7392511;19;20058;-77
2021/12/30 11:51:47;;;;;;;0.28;0.25;;;;;;;;;;7393304;19;19998;-77
2021/12/30 11:54:37;;;;;;;0.20;0.20;;;;;;;;;;7393189;19;20087;-77
2021/12/30 11:57:25;;;;;;;0.70;0.40;;;;;;;;;;7392129;19;20039;-77
2021/12/30 11:59:52;;;;;;;0.32;0.30;;;;;;;;;;7393988;19;20665;-76
2021/12/30 12:02:31;;;;;;;0.98;0.50;;;;;;;;;;7392904;19;20013;-77
2021/12/30 12:04:57;;;;;;;0.20;0.20;;;;;;;;;;7392681;19;20332;-77
2021/12/30 12:07:22;;;;;;;0.20;0.20;;;;;;;;;;7391339;19;20024;-77
2021/12/30 12:09:48;;;;;;;0.70;0.40;;;;;;;;;;7391614;19;20006;-77
2021/12/30 12:12:29;;;;;;;0.45;0.30;;;;;;;;;;7391284;19;20017;-77
2021/12/30 12:14:59;;;;;;;0.85;0.30;;;;;;;;;;7392354;19;19998;-77
2021/12/30 12:17:35;;;;;;;0.28;0.28;;;;;;;;;;7390887;19;20039;-77
2021/12/30 12:20:14;;;;;;;0.65;0.30;;;;;;;;;;7390428;19;19999;-77
2021/12/30 12:22:39;;;;;;;1.27;0.40;;;;;;;;;;7395573;19;20019;-77
2021/12/30 12:25:22;;;;;;;0.10;0.10;;;;;;;;;;7391182;19;19995;-77
2021/12/30 12:27:51;;;;;;;0.38;0.30;;;;;;;;;;7390191;19;20028;-77
2021/12/30 12:30:34;;;;;;;0.10;0.10;;;;;;;;;;7391448;19;20006;-77
2021/12/30 12:33:23;;;;;;;0.22;0.20;;;;;;;;;;7391991;19;20007;-77
2021/12/30 12:35:49;;;;;;;0.30;0.30;;;;;;;;;;7391760;19;20483;-77
2021/12/30 12:38:34;;;;;;;0.32;0.20;;;;;;;;;;7390020;19;20006;-77
2021/12/30 12:41:02;;;;;;;0.85;0.47;;;;;;;;;;7389913;19;20014;-77
2021/12/30 12:43:28;;;;;;;0.20;0.17;;;;;;;;;;7390984;19;20338;-77
2021/12/30 12:46:03;;;;;;;0.32;0.20;;;;;;;;;;7391206;19;20058;-77
2021/12/30 12:48:32;;;;;;;1.10;0.20;;;;;;;;;;7394290;19;20003;-76
2021/12/30 12:51:01;;;;;;;0.10;0.10;;;;;;;;;;7391146;19;20006;-77
2021/12/30 12:53:26;;;;;;;0.40;0.40;;;;;;;;;;7389886;19;20017;-77
2021/12/30 12:55:54;;;;;;;0.55;0.40;;;;;;;;;;7391067;19;19999;-78
2021/12/30 12:58:26;;;;;;;0.93;0.30;;;;;;;;;;7390681;19;19998;-77
2021/12/30 13:00:52;;;;;;;0.35;0.20;;;;;;;;;;7389569;19;20003;-77
2021/12/30 13:03:19;;;;;;;0.20;0.20;;;;;;;;;;7390417;19;20033;-77
2021/12/30 13:06:01;;;;;;;0.77;0.73;;;;;;;;;;7391080;19;20310;-77
2021/12/30 13:08:28;;;;;;;0.50;0.30;;;;;;;;;;7389574;19;20003;-77
2021/12/30 13:10:53;;;;;;;0.20;0.20;;;;;;;;;;7391243;19;20063;-77
2021/12/30 13:13:33;;;;;;;0.40;0.17;;;;;;;;;;7390338;19;20011;-78
2021/12/30 13:16:01;;;;;;;0.30;0.30;;;;;;;;;;7390064;19;20077;-77
2021/12/30 13:18:27;;;;;;;0.30;0.30;;;;;;;;;;7389575;19;20354;-78
2021/12/30 13:20:53;;;;;;;0.52;0.50;;;;;;;;;;7388973;19;20058;-77
2021/12/30 13:23:31;;;;;;;0.40;0.35;;;;;;;;;;7393298;19;20108;-77
2021/12/30 13:26:03;;;;;;;0.82;0.50;;;;;;;;;;7389627;19;20473;-78
2021/12/30 13:28:29;;;;;;;0.93;0.47;;;;;;;;;;7389904;19;20022;-77
2021/12/30 13:31:08;;;;;;;0.22;0.22;;;;;;;;;;7390877;19;20003;-77
2021/12/30 13:33:34;;;;;;;1.27;0.30;;;;;;;;;;7390342;19;20496;-77
2021/12/30 13:36:11;;;;;;;0.35;0.35;;;;;;;;;;7389865;19;20070;-77
2021/12/30 13:38:36;;;;;;;0.60;0.30;;;;;;;;;;7392712;19;20594;-77
2021/12/30 13:41:02;;;;;;;1.17;0.40;;;;;;;;;;7388565;19;20077;-77
2021/12/30 13:43:27;;;;;;;0.30;0.30;;;;;;;;;;7390061;19;20016;-78
2021/12/30 13:45:57;;;;;;;0.10;0.10;;;;;;;;;;7389689;19;20335;-78
2021/12/30 13:48:29;;;;;;;0.65;0.30;;;;;;;;;;7388959;19;19995;-77
2021/12/30 13:51:10;;;;;;;0.40;0.40;;;;;;;;;;7389849;19;19999;-77
2021/12/30 13:53:38;;;;;;;0.88;0.35;;;;;;;;;;7389027;19;20009;-77
2021/12/30 13:56:06;;;;;;;0.68;0.50;;;;;;;;;;7389041;19;20101;-77
2021/12/30 13:58:35;;;;;;;0.20;0.20;;;;;;;;;;7391330;19;20086;-77
2021/12/30 14:01:09;;;;;;;0.20;0.20;;;;;;;;;;7387695;19;20561;-77
2021/12/30 14:03:37;;;;;;;0.20;0.20;;;;;;;;;;7389255;19;20441;-77
2021/12/30 14:06:10;;;;;;;0.20;0.20;;;;;;;;;;7388793;19;20027;-77
2021/12/30 14:08:36;;;;;;;0.30;0.30;;;;;;;;;;7388069;19;20010;-78
2021/12/30 14:11:05;;;;;;;0.80;0.52;;;;;;;;;;7390227;19;19994;-76
2021/12/30 14:13:33;;;;;;;1.58;0.40;;;;;;;;;;7389061;19;20568;-77
2021/12/30 14:15:59;;;;;;;0.70;0.60;;;;;;;;;;7388494;19;20347;-77
2021/12/30 14:18:30;;;;;;;0.50;0.40;;;;;;;;;;7387915;19;20132;-77
2021/12/30 14:20:56;;;;;;;0.68;0.50;;;;;;;;;;7387027;19;20074;-77
2021/12/30 14:23:39;;;;;;;0.30;0.30;;;;;;;;;;7392685;19;20020;-77
2021/12/30 14:26:11;;;;;;;1.40;0.35;;;;;;;;;;7389348;19;19999;-77
2021/12/30 14:28:45;;;;;;;0.43;0.43;;;;;;;;;;7392376;19;20088;-77
2021/12/30 14:31:19;;;;;;;2.25;0.80;;;;;;;;;;7388931;19;20454;-77
2021/12/30 14:33:44;;;;;;;0.50;0.50;;;;;;;;;;7389136;19;20007;-77
2021/12/30 14:36:12;;;;;;;1.77;0.30;;;;;;;;;;7391307;19;20002;-77
2021/12/30 14:38:39;;;;;;;0.35;0.35;;;;;;;;;;7394468;19;20003;-77
2021/12/30 14:41:16;;;;;;;0.75;0.50;;;;;;;;;;7393089;19;20006;-77
2021/12/30 14:44:02;;;;;;;1.52;0.50;;;;;;;;;;7395816;19;20473;-77
2021/12/30 14:46:28;;;;;;;1.40;0.70;;;;;;;;;;7394560;19;20341;-76